sensor_id;sensor_type;location;lat;lon;timestamp;temperature;humidity
6752;DHT22;3413;47.680;9.166;2023-08-17T00:04:51;26.90;73.60
6752;DHT22;3413;47.680;9.166;2023-08-17T00:09:53;26.80;73.70
6752;DHT22;3413;47.680;9.166;2023-08-17T00:14:56;26.70;73.70
6752;DHT22;3413;47.680;9.166;2023-08-17T00:19:58;26.70;73.80
6752;DHT22;3413;47.680;9.166;2023-08-17T00:25:00;26.70;73.90
6752;DHT22;3413;47.680;9.166;2023-08-17T00:30:01;26.70;73.90
6752;DHT22;3413;47.680;9.166;2023-08-17T00:35:04;26.60;74.00
6752;DHT22;3413;47.680;9.166;2023-08-17T00:40:06;26.60;74.20
6752;DHT22;3413;47.680;9.166;2023-08-17T00:45:09;26.60;74.10
6752;DHT22;3413;47.680;9.166;2023-08-17T00:50:11;26.60;74.10
6752;DHT22;3413;47.680;9.166;2023-08-17T00:55:14;26.60;74.20
6752;DHT22;3413;47.680;9.166;2023-08-17T01:00:16;26.50;74.20
6752;DHT22;3413;47.680;9.166;2023-08-17T01:05:21;26.50;74.30
6752;DHT22;3413;47.680;9.166;2023-08-17T01:10:23;26.30;74.30
6752;DHT22;3413;47.680;9.166;2023-08-17T01:15:37;26.20;74.40
6752;DHT22;3413;47.680;9.166;2023-08-17T01:20:40;26.20;74.60
6752;DHT22;3413;47.680;9.166;2023-08-17T01:25:43;26.10;74.60
6752;DHT22;3413;47.680;9.166;2023-08-17T01:36:13;26.00;74.80
6752;DHT22;3413;47.680;9.166;2023-08-17T01:41:18;25.90;74.90
6752;DHT22;3413;47.680;9.166;2023-08-17T01:46:22;25.90;74.90
6752;DHT22;3413;47.680;9.166;2023-08-17T01:51:24;25.80;74.90
6752;DHT22;3413;47.680;9.166;2023-08-17T01:56:26;25.80;75.00
6752;DHT22;3413;47.680;9.166;2023-08-17T02:01:28;25.70;75.10
6752;DHT22;3413;47.680;9.166;2023-08-17T02:06:30;25.60;75.10
6752;DHT22;3413;47.680;9.166;2023-08-17T02:11:32;25.60;75.20
6752;DHT22;3413;47.680;9.166;2023-08-17T02:16:34;25.50;75.30
6752;DHT22;3413;47.680;9.166;2023-08-17T02:21:36;25.50;75.30
6752;DHT22;3413;47.680;9.166;2023-08-17T02:26:38;25.40;75.40
6752;DHT22;3413;47.680;9.166;2023-08-17T02:31:41;25.40;75.50
6752;DHT22;3413;47.680;9.166;2023-08-17T02:36:43;25.40;75.60
6752;DHT22;3413;47.680;9.166;2023-08-17T02:41:45;25.30;75.70
6752;DHT22;3413;47.680;9.166;2023-08-17T02:46:50;25.20;75.70
6752;DHT22;3413;47.680;9.166;2023-08-17T02:51:52;25.20;75.70
6752;DHT22;3413;47.680;9.166;2023-08-17T02:56:54;25.20;75.80
6752;DHT22;3413;47.680;9.166;2023-08-17T03:01:56;25.30;75.90
6752;DHT22;3413;47.680;9.166;2023-08-17T03:06:59;25.30;75.90
6752;DHT22;3413;47.680;9.166;2023-08-17T03:12:01;25.20;76.00
6752;DHT22;3413;47.680;9.166;2023-08-17T03:17:03;25.10;76.00
6752;DHT22;3413;47.680;9.166;2023-08-17T03:22:04;25.10;76.10
6752;DHT22;3413;47.680;9.166;2023-08-17T03:27:06;25.10;76.20
6752;DHT22;3413;47.680;9.166;2023-08-17T03:32:08;25.10;76.20
6752;DHT22;3413;47.680;9.166;2023-08-17T03:37:10;25.00;76.20
6752;DHT22;3413;47.680;9.166;2023-08-17T03:42:12;25.00;76.30
6752;DHT22;3413;47.680;9.166;2023-08-17T03:47:15;24.90;76.30
6752;DHT22;3413;47.680;9.166;2023-08-17T03:52:17;24.90;76.60
6752;DHT22;3413;47.680;9.166;2023-08-17T03:57:19;24.90;76.60
6752;DHT22;3413;47.680;9.166;2023-08-17T04:02:21;24.90;76.60
6752;DHT22;3413;47.680;9.166;2023-08-17T04:07:23;24.70;76.50
6752;DHT22;3413;47.680;9.166;2023-08-17T04:12:28;24.70;76.70
6752;DHT22;3413;47.680;9.166;2023-08-17T04:17:30;24.50;76.70
6752;DHT22;3413;47.680;9.166;2023-08-17T04:22:33;24.50;76.90
6752;DHT22;3413;47.680;9.166;2023-08-17T04:27:35;24.50;77.00
6752;DHT22;3413;47.680;9.166;2023-08-17T04:32:37;24.50;77.10
6752;DHT22;3413;47.680;9.166;2023-08-17T04:37:39;24.50;77.10
6752;DHT22;3413;47.680;9.166;2023-08-17T04:42:43;24.50;77.20
6752;DHT22;3413;47.680;9.166;2023-08-17T04:47:45;24.40;77.20
6752;DHT22;3413;47.680;9.166;2023-08-17T04:52:47;24.40;77.30
6752;DHT22;3413;47.680;9.166;2023-08-17T04:57:49;24.30;77.30
6752;DHT22;3413;47.680;9.166;2023-08-17T05:02:51;24.40;77.60
6752;DHT22;3413;47.680;9.166;2023-08-17T05:07:54;24.40;77.70
6752;DHT22;3413;47.680;9.166;2023-08-17T05:12:56;24.50;77.80
6752;DHT22;3413;47.680;9.166;2023-08-17T05:17:58;24.60;78.00
6752;DHT22;3413;47.680;9.166;2023-08-17T05:23:00;24.60;78.00
6752;DHT22;3413;47.680;9.166;2023-08-17T05:28:03;24.70;78.20
6752;DHT22;3413;47.680;9.166;2023-08-17T05:33:05;24.70;78.30
6752;DHT22;3413;47.680;9.166;2023-08-17T05:38:08;24.90;78.60
6752;DHT22;3413;47.680;9.166;2023-08-17T05:43:11;25.00;78.70
6752;DHT22;3413;47.680;9.166;2023-08-17T05:48:13;25.10;78.90
6752;DHT22;3413;47.680;9.166;2023-08-17T05:53:15;25.20;79.10
6752;DHT22;3413;47.680;9.166;2023-08-17T05:58:17;25.20;79.10
6752;DHT22;3413;47.680;9.166;2023-08-17T06:03:19;25.40;79.30
6752;DHT22;3413;47.680;9.166;2023-08-17T06:08:21;25.50;79.40
6752;DHT22;3413;47.680;9.166;2023-08-17T06:13:23;25.60;79.50
6752;DHT22;3413;47.680;9.166;2023-08-17T06:18:25;25.60;79.50
6752;DHT22;3413;47.680;9.166;2023-08-17T06:23:27;25.70;79.50
6752;DHT22;3413;47.680;9.166;2023-08-17T06:28:29;25.80;79.60
6752;DHT22;3413;47.680;9.166;2023-08-17T06:33:31;25.80;79.70
6752;DHT22;3413;47.680;9.166;2023-08-17T06:38:33;26.00;79.90
6752;DHT22;3413;47.680;9.166;2023-08-17T06:43:34;26.00;80.10
6752;DHT22;3413;47.680;9.166;2023-08-17T06:48:36;26.10;80.10
6752;DHT22;3413;47.680;9.166;2023-08-17T06:53:38;26.10;80.20
6752;DHT22;3413;47.680;9.166;2023-08-17T06:58:40;26.30;80.30
6752;DHT22;3413;47.680;9.166;2023-08-17T07:03:42;26.50;80.30
6752;DHT22;3413;47.680;9.166;2023-08-17T07:08:44;26.60;81.00
6752;DHT22;3413;47.680;9.166;2023-08-17T07:13:46;26.70;80.30
6752;DHT22;3413;47.680;9.166;2023-08-17T07:18:48;26.80;81.00
6752;DHT22;3413;47.680;9.166;2023-08-17T07:23:50;27.00;80.50
6752;DHT22;3413;47.680;9.166;2023-08-17T07:28:52;27.00;80.20
6752;DHT22;3413;47.680;9.166;2023-08-17T07:33:54;27.20;80.40
6752;DHT22;3413;47.680;9.166;2023-08-17T07:38:56;27.30;80.30
6752;DHT22;3413;47.680;9.166;2023-08-17T07:43:58;27.40;80.50
6752;DHT22;3413;47.680;9.166;2023-08-17T07:49:00;27.40;80.50
6752;DHT22;3413;47.680;9.166;2023-08-17T07:54:02;27.30;80.50
6752;DHT22;3413;47.680;9.166;2023-08-17T07:59:04;27.40;80.60
6752;DHT22;3413;47.680;9.166;2023-08-17T08:04:07;27.40;80.80
6752;DHT22;3413;47.680;9.166;2023-08-17T08:09:09;27.60;80.70
6752;DHT22;3413;47.680;9.166;2023-08-17T08:14:11;27.80;80.70
6752;DHT22;3413;47.680;9.166;2023-08-17T08:19:13;27.80;80.80
6752;DHT22;3413;47.680;9.166;2023-08-17T08:24:15;28.10;80.60
6752;DHT22;3413;47.680;9.166;2023-08-17T08:29:31;28.10;80.60
6752;DHT22;3413;47.680;9.166;2023-08-17T08:34:33;28.30;80.80
6752;DHT22;3413;47.680;9.166;2023-08-17T08:39:51;28.50;80.90
6752;DHT22;3413;47.680;9.166;2023-08-17T08:44:53;28.70;80.80
6752;DHT22;3413;47.680;9.166;2023-08-17T08:50:05;29.00;80.70
6752;DHT22;3413;47.680;9.166;2023-08-17T09:00:13;29.30;80.80
6752;DHT22;3413;47.680;9.166;2023-08-17T09:05:15;29.50;80.90
6752;DHT22;3413;47.680;9.166;2023-08-17T09:10:18;29.80;81.00
6752;DHT22;3413;47.680;9.166;2023-08-17T09:15:20;29.90;80.80
6752;DHT22;3413;47.680;9.166;2023-08-17T09:20:45;30.10;80.60
6752;DHT22;3413;47.680;9.166;2023-08-17T09:25:50;30.30;80.80
6752;DHT22;3413;47.680;9.166;2023-08-17T09:31:01;30.60;80.90
6752;DHT22;3413;47.680;9.166;2023-08-17T09:36:05;30.90;81.10
6752;DHT22;3413;47.680;9.166;2023-08-17T09:41:07;31.30;81.80
6752;DHT22;3413;47.680;9.166;2023-08-17T09:46:09;31.60;81.20
6752;DHT22;3413;47.680;9.166;2023-08-17T09:51:15;31.70;80.90
6752;DHT22;3413;47.680;9.166;2023-08-17T09:56:17;31.70;80.90
6752;DHT22;3413;47.680;9.166;2023-08-17T10:01:21;31.80;81.00
6752;DHT22;3413;47.680;9.166;2023-08-17T10:06:24;32.00;81.20
6752;DHT22;3413;47.680;9.166;2023-08-17T10:11:31;32.10;80.90
6752;DHT22;3413;47.680;9.166;2023-08-17T10:16:45;32.10;80.40
6752;DHT22;3413;47.680;9.166;2023-08-17T10:27:02;31.90;80.50
6752;DHT22;3413;47.680;9.166;2023-08-17T10:32:06;32.00;80.60
6752;DHT22;3413;47.680;9.166;2023-08-17T10:37:09;32.00;80.60
6752;DHT22;3413;47.680;9.166;2023-08-17T10:42:11;32.20;80.70
6752;DHT22;3413;47.680;9.166;2023-08-17T10:47:25;32.30;80.40
6752;DHT22;3413;47.680;9.166;2023-08-17T10:52:32;32.50;80.30
6752;DHT22;3413;47.680;9.166;2023-08-17T10:57:42;32.70;80.30
6752;DHT22;3413;47.680;9.166;2023-08-17T11:02:44;33.00;80.00
6752;DHT22;3413;47.680;9.166;2023-08-17T11:07:47;33.10;80.00
6752;DHT22;3413;47.680;9.166;2023-08-17T11:12:49;33.40;80.00
6752;DHT22;3413;47.680;9.166;2023-08-17T11:17:54;33.50;79.80
6752;DHT22;3413;47.680;9.166;2023-08-17T11:22:57;33.90;79.20
6752;DHT22;3413;47.680;9.166;2023-08-17T11:28:00;34.20;78.90
6752;DHT22;3413;47.680;9.166;2023-08-17T11:33:03;33.90;78.70
6752;DHT22;3413;47.680;9.166;2023-08-17T11:38:05;33.90;78.70
6752;DHT22;3413;47.680;9.166;2023-08-17T11:43:09;33.90;78.60
6752;DHT22;3413;47.680;9.166;2023-08-17T11:48:13;34.10;78.60
6752;DHT22;3413;47.680;9.166;2023-08-17T11:53:18;34.30;78.50
6752;DHT22;3413;47.680;9.166;2023-08-17T11:58:36;34.40;78.30
6752;DHT22;3413;47.680;9.166;2023-08-17T12:03:39;34.50;78.10
6752;DHT22;3413;47.680;9.166;2023-08-17T12:08:44;34.50;78.10
6752;DHT22;3413;47.680;9.166;2023-08-17T12:13:49;34.60;78.00
6752;DHT22;3413;47.680;9.166;2023-08-17T12:18:52;34.50;78.10
6752;DHT22;3413;47.680;9.166;2023-08-17T12:23:55;34.70;78.10
6752;DHT22;3413;47.680;9.166;2023-08-17T12:28:57;34.90;78.10
6752;DHT22;3413;47.680;9.166;2023-08-17T12:33:59;35.00;77.60
6752;DHT22;3413;47.680;9.166;2023-08-17T12:39:01;35.00;77.40
6752;DHT22;3413;47.680;9.166;2023-08-17T12:44:05;35.00;77.30
6752;DHT22;3413;47.680;9.166;2023-08-17T12:49:07;35.10;77.10
6752;DHT22;3413;47.680;9.166;2023-08-17T12:54:09;35.00;77.20
6752;DHT22;3413;47.680;9.166;2023-08-17T12:59:11;34.90;77.30
6752;DHT22;3413;47.680;9.166;2023-08-17T13:04:13;34.70;77.00
6752;DHT22;3413;47.680;9.166;2023-08-17T13:09:15;34.70;77.00
6752;DHT22;3413;47.680;9.166;2023-08-17T13:14:17;34.70;77.00
6752;DHT22;3413;47.680;9.166;2023-08-17T13:19:19;34.40;76.80
6752;DHT22;3413;47.680;9.166;2023-08-17T13:24:21;34.40;76.60
6752;DHT22;3413;47.680;9.166;2023-08-17T13:29:23;34.10;76.60
6752;DHT22;3413;47.680;9.166;2023-08-17T13:34:25;34.00;76.60
6752;DHT22;3413;47.680;9.166;2023-08-17T13:39:27;34.00;76.50
6752;DHT22;3413;47.680;9.166;2023-08-17T13:44:29;34.20;76.50
6752;DHT22;3413;47.680;9.166;2023-08-17T13:49:31;34.30;76.40
6752;DHT22;3413;47.680;9.166;2023-08-17T13:54:32;34.40;76.20
6752;DHT22;3413;47.680;9.166;2023-08-17T13:59:34;34.30;76.00
6752;DHT22;3413;47.680;9.166;2023-08-17T14:04:36;34.00;76.00
6752;DHT22;3413;47.680;9.166;2023-08-17T14:09:38;33.70;76.70
6752;DHT22;3413;47.680;9.166;2023-08-17T14:14:40;33.70;76.00
6752;DHT22;3413;47.680;9.166;2023-08-17T14:19:44;33.50;75.90
6752;DHT22;3413;47.680;9.166;2023-08-17T14:24:46;33.40;76.00
6752;DHT22;3413;47.680;9.166;2023-08-17T14:29:48;33.20;76.00
6752;DHT22;3413;47.680;9.166;2023-08-17T14:34:50;33.20;76.00
6752;DHT22;3413;47.680;9.166;2023-08-17T14:39:51;33.10;75.90
6752;DHT22;3413;47.680;9.166;2023-08-17T14:44:53;33.00;75.70
6752;DHT22;3413;47.680;9.166;2023-08-17T14:49:55;32.80;75.70
6752;DHT22;3413;47.680;9.166;2023-08-17T14:54:57;33.00;75.60
6752;DHT22;3413;47.680;9.166;2023-08-17T14:59:59;33.20;75.30
6752;DHT22;3413;47.680;9.166;2023-08-17T15:05:01;33.20;75.10
6752;DHT22;3413;47.680;9.166;2023-08-17T15:10:03;33.20;74.90
6752;DHT22;3413;47.680;9.166;2023-08-17T15:15:06;33.40;74.80
6752;DHT22;3413;47.680;9.166;2023-08-17T15:20:08;33.60;74.40
6752;DHT22;3413;47.680;9.166;2023-08-17T15:25:10;33.60;74.20
6752;DHT22;3413;47.680;9.166;2023-08-17T15:30:12;33.60;74.10
6752;DHT22;3413;47.680;9.166;2023-08-17T15:35:14;33.70;74.00
6752;DHT22;3413;47.680;9.166;2023-08-17T15:40:16;33.60;73.90
6752;DHT22;3413;47.680;9.166;2023-08-17T15:45:18;33.40;73.70
6752;DHT22;3413;47.680;9.166;2023-08-17T15:50:22;33.40;73.60
6752;DHT22;3413;47.680;9.166;2023-08-17T15:55:24;33.00;73.70
6752;DHT22;3413;47.680;9.166;2023-08-17T16:00:26;32.70;73.70
6752;DHT22;3413;47.680;9.166;2023-08-17T16:05:27;32.70;73.50
6752;DHT22;3413;47.680;9.166;2023-08-17T16:10:29;32.70;73.40
6752;DHT22;3413;47.680;9.166;2023-08-17T16:15:36;32.40;73.60
6752;DHT22;3413;47.680;9.166;2023-08-17T16:20:38;32.10;73.80
6752;DHT22;3413;47.680;9.166;2023-08-17T16:25:40;32.10;73.80
6752;DHT22;3413;47.680;9.166;2023-08-17T16:30:42;31.80;73.90
6752;DHT22;3413;47.680;9.166;2023-08-17T16:35:44;31.70;74.00
6752;DHT22;3413;47.680;9.166;2023-08-17T16:40:46;31.70;74.00
6752;DHT22;3413;47.680;9.166;2023-08-17T16:45:48;31.70;73.80
6752;DHT22;3413;47.680;9.166;2023-08-17T16:50:50;31.80;73.70
6752;DHT22;3413;47.680;9.166;2023-08-17T16:55:52;31.90;73.50
6752;DHT22;3413;47.680;9.166;2023-08-17T17:00:58;31.50;73.30
6752;DHT22;3413;47.680;9.166;2023-08-17T17:05:59;31.20;73.00
6752;DHT22;3413;47.680;9.166;2023-08-17T17:11:01;31.10;72.70
6752;DHT22;3413;47.680;9.166;2023-08-17T17:16:03;31.00;72.50
6752;DHT22;3413;47.680;9.166;2023-08-17T17:21:11;31.10;72.30
6752;DHT22;3413;47.680;9.166;2023-08-17T17:26:12;31.30;71.90
6752;DHT22;3413;47.680;9.166;2023-08-17T17:31:15;31.50;71.90
6752;DHT22;3413;47.680;9.166;2023-08-17T17:36:17;31.60;71.80
6752;DHT22;3413;47.680;9.166;2023-08-17T17:41:19;31.70;71.90
6752;DHT22;3413;47.680;9.166;2023-08-17T17:46:21;31.80;71.90
6752;DHT22;3413;47.680;9.166;2023-08-17T17:51:23;31.80;71.90
6752;DHT22;3413;47.680;9.166;2023-08-17T17:56:43;31.70;71.90
6752;DHT22;3413;47.680;9.166;2023-08-17T18:01:46;31.70;71.80
6752;DHT22;3413;47.680;9.166;2023-08-17T18:06:48;31.40;71.80
6752;DHT22;3413;47.680;9.166;2023-08-17T18:11:50;30.90;71.90
6752;DHT22;3413;47.680;9.166;2023-08-17T18:16:52;30.30;72.20
6752;DHT22;3413;47.680;9.166;2023-08-17T18:21:54;29.90;72.40
6752;DHT22;3413;47.680;9.166;2023-08-17T18:26:56;29.50;72.60
6752;DHT22;3413;47.680;9.166;2023-08-17T18:31:58;29.20;72.70
6752;DHT22;3413;47.680;9.166;2023-08-17T18:37:00;29.00;72.80
6752;DHT22;3413;47.680;9.166;2023-08-17T18:42:02;28.70;72.90
6752;DHT22;3413;47.680;9.166;2023-08-17T18:47:05;28.50;72.80
6752;DHT22;3413;47.680;9.166;2023-08-17T18:52:07;28.30;73.00
6752;DHT22;3413;47.680;9.166;2023-08-17T18:57:09;28.10;73.10
6752;DHT22;3413;47.680;9.166;2023-08-17T19:02:11;27.90;73.20
6752;DHT22;3413;47.680;9.166;2023-08-17T19:07:14;27.70;73.20
6752;DHT22;3413;47.680;9.166;2023-08-17T19:12:16;27.50;73.20
6752;DHT22;3413;47.680;9.166;2023-08-17T19:17:21;27.40;73.30
6752;DHT22;3413;47.680;9.166;2023-08-17T19:22:23;27.30;73.40
6752;DHT22;3413;47.680;9.166;2023-08-17T19:27:25;27.20;73.40
6752;DHT22;3413;47.680;9.166;2023-08-17T19:32:27;27.20;73.50
6752;DHT22;3413;47.680;9.166;2023-08-17T19:37:29;27.10;73.50
6752;DHT22;3413;47.680;9.166;2023-08-17T19:42:34;27.10;73.70
6752;DHT22;3413;47.680;9.166;2023-08-17T19:47:39;27.10;73.80
6752;DHT22;3413;47.680;9.166;2023-08-17T19:52:41;27.00;73.90
6752;DHT22;3413;47.680;9.166;2023-08-17T19:57:43;26.90;73.90
6752;DHT22;3413;47.680;9.166;2023-08-17T20:02:45;26.90;74.00
6752;DHT22;3413;47.680;9.166;2023-08-17T20:07:48;26.90;74.00
6752;DHT22;3413;47.680;9.166;2023-08-17T20:12:50;26.90;74.00
6752;DHT22;3413;47.680;9.166;2023-08-17T20:17:52;26.90;74.00
6752;DHT22;3413;47.680;9.166;2023-08-17T20:22:54;26.90;73.90
6752;DHT22;3413;47.680;9.166;2023-08-17T20:27:56;26.90;74.00
6752;DHT22;3413;47.680;9.166;2023-08-17T20:32:58;26.80;74.00
6752;DHT22;3413;47.680;9.166;2023-08-17T20:38:00;26.80;73.90
6752;DHT22;3413;47.680;9.166;2023-08-17T20:43:02;26.80;73.90
6752;DHT22;3413;47.680;9.166;2023-08-17T20:48:04;26.80;73.90
6752;DHT22;3413;47.680;9.166;2023-08-17T20:53:07;26.90;74.00
6752;DHT22;3413;47.680;9.166;2023-08-17T20:58:12;26.80;74.00
6752;DHT22;3413;47.680;9.166;2023-08-17T21:03:14;26.80;74.00
6752;DHT22;3413;47.680;9.166;2023-08-17T21:08:16;26.80;74.00
6752;DHT22;3413;47.680;9.166;2023-08-17T21:13:19;26.70;74.00
6752;DHT22;3413;47.680;9.166;2023-08-17T21:18:21;26.70;73.90
6752;DHT22;3413;47.680;9.166;2023-08-17T21:23:23;26.70;74.00
6752;DHT22;3413;47.680;9.166;2023-08-17T21:28:24;26.70;74.00
6752;DHT22;3413;47.680;9.166;2023-08-17T21:33:27;26.60;74.00
6752;DHT22;3413;47.680;9.166;2023-08-17T21:38:29;26.60;74.00
6752;DHT22;3413;47.680;9.166;2023-08-17T21:43:31;26.60;74.00
6752;DHT22;3413;47.680;9.166;2023-08-17T21:48:33;26.60;74.10
6752;DHT22;3413;47.680;9.166;2023-08-17T21:53:36;26.50;74.10
6752;DHT22;3413;47.680;9.166;2023-08-17T21:58:38;26.50;74.10
6752;DHT22;3413;47.680;9.166;2023-08-17T22:03:40;26.40;74.20
6752;DHT22;3413;47.680;9.166;2023-08-17T22:08:42;26.30;74.20
6752;DHT22;3413;47.680;9.166;2023-08-17T22:13:44;26.30;74.20
6752;DHT22;3413;47.680;9.166;2023-08-17T22:18:46;26.30;74.20
6752;DHT22;3413;47.680;9.166;2023-08-17T22:23:47;26.40;74.00
6752;DHT22;3413;47.680;9.166;2023-08-17T22:28:49;26.30;74.00
6752;DHT22;3413;47.680;9.166;2023-08-17T22:33:51;26.30;73.90
6752;DHT22;3413;47.680;9.166;2023-08-17T22:38:53;26.30;73.90
6752;DHT22;3413;47.680;9.166;2023-08-17T22:43:55;26.30;73.90
6752;DHT22;3413;47.680;9.166;2023-08-17T22:48:57;26.30;73.90
6752;DHT22;3413;47.680;9.166;2023-08-17T22:53:59;26.20;73.90
6752;DHT22;3413;47.680;9.166;2023-08-17T22:59:03;26.00;74.00
6752;DHT22;3413;47.680;9.166;2023-08-17T23:04:05;25.90;74.10
6752;DHT22;3413;47.680;9.166;2023-08-17T23:09:08;25.80;74.20
6752;DHT22;3413;47.680;9.166;2023-08-17T23:14:09;25.70;74.20
6752;DHT22;3413;47.680;9.166;2023-08-17T23:19:11;25.70;74.30
6752;DHT22;3413;47.680;9.166;2023-08-17T23:24:13;25.70;74.10
6752;DHT22;3413;47.680;9.166;2023-08-17T23:29:15;25.60;74.10
6752;DHT22;3413;47.680;9.166;2023-08-17T23:34:17;25.60;74.20
6752;DHT22;3413;47.680;9.166;2023-08-17T23:39:19;25.60;74.20
6752;DHT22;3413;47.680;9.166;2023-08-17T23:44:21;25.50;74.20
6752;DHT22;3413;47.680;9.166;2023-08-17T23:49:23;25.40;74.20
6752;DHT22;3413;47.680;9.166;2023-08-17T23:54:25;25.40;74.30
6752;DHT22;3413;47.680;9.166;2023-08-17T23:59:27;25.30;74.30
